Time;durP1;ratioP1;P1;durP2;ratioP2;P2;SDS_P1;SDS_P2;PMS_P1;PMS_P2;Temp;Humidity;BMP_temperature;BMP_pressure;BME280_temperature;BME280_humidity;BME280_pressure;Samples;Min_cycle;Max_cycle;Signal;HPM_P1;HPM_P2
2022/06/13 00:00:29;;;;;;;5.20;2.97;;;19.80;99.90;;;;;;1043183;28;20519;-69
2022/06/13 00:00:59;;;;;;;4.35;2.67;;;19.80;99.90;;;;;;1043340;28;20124;-68
2022/06/13 00:01:32;;;;;;;4.80;2.47;;;19.80;99.90;;;;;;1043518;28;20021;-70
2022/06/13 00:02:03;;;;;;;6.25;2.42;;;19.80;99.90;;;;;;1043809;28;20020;-68
2022/06/13 00:02:34;;;;;;;4.28;2.30;;;19.80;99.90;;;;;;1043598;28;20053;-68
2022/06/13 00:03:05;;;;;;;4.90;2.70;;;19.80;99.90;;;;;;1043475;28;20519;-68
2022/06/13 00:03:36;;;;;;;3.93;2.20;;;19.80;99.90;;;;;;1043356;28;20467;-69
2022/06/13 00:04:08;;;;;;;5.97;2.90;;;19.80;99.90;;;;;;1043460;28;20013;-69
2022/06/13 00:04:38;;;;;;;5.95;2.78;;;19.80;99.90;;;;;;1043466;28;20053;-70
2022/06/13 00:05:09;;;;;;;5.27;2.97;;;19.80;99.90;;;;;;1043562;28;20029;-69
2022/06/13 00:05:40;;;;;;;3.47;2.23;;;19.80;99.90;;;;;;1039489;28;20087;-68
2022/06/13 00:06:10;;;;;;;4.67;2.37;;;19.80;99.90;;;;;;1039130;28;20025;-69
2022/06/13 00:06:41;;;;;;;7.77;2.67;;;19.80;99.90;;;;;;1038837;28;20022;-69
2022/06/13 00:07:11;;;;;;;4.23;2.60;;;19.80;99.90;;;;;;1039169;28;20110;-71
2022/06/13 00:07:42;;;;;;;4.67;2.60;;;19.80;99.90;;;;;;1039461;28;20075;-69
2022/06/13 00:08:12;;;;;;;3.87;2.70;;;19.80;99.90;;;;;;1038805;28;20029;-68
2022/06/13 00:08:43;;;;;;;4.70;2.63;;;19.80;99.90;;;;;;1039052;28;20025;-69
2022/06/13 00:09:14;;;;;;;4.93;2.63;;;19.80;99.90;;;;;;1038965;28;20123;-68
2022/06/13 00:09:45;;;;;;;6.22;2.78;;;19.80;99.90;;;;;;1038897;28;20564;-68
2022/06/13 00:10:16;;;;;;;5.27;3.10;;;19.80;99.90;;;;;;1039724;28;20165;-68
2022/06/13 00:10:46;;;;;;;6.50;3.23;;;19.80;99.90;;;;;;1039332;28;20564;-69
2022/06/13 00:11:21;;;;;;;3.97;2.40;;;19.80;99.90;;;;;;1040480;28;20056;-70
2022/06/13 00:11:51;;;;;;;6.57;2.97;;;19.70;99.90;;;;;;1043456;28;20146;-70
2022/06/13 00:12:22;;;;;;;7.57;3.27;;;19.70;99.90;;;;;;1043499;28;20021;-69
2022/06/13 00:12:53;;;;;;;7.53;3.00;;;19.70;99.90;;;;;;1043378;28;20483;-69
2022/06/13 00:13:23;;;;;;;3.73;2.20;;;19.70;99.90;;;;;;1043409;28;20107;-69
2022/06/13 00:13:55;;;;;;;8.27;2.90;;;19.70;99.90;;;;;;1043306;28;20431;-70
2022/06/13 00:14:25;;;;;;;5.75;2.78;;;19.70;99.90;;;;;;1043467;28;20021;-69
2022/06/13 00:14:56;;;;;;;4.97;3.07;;;19.70;99.90;;;;;;1043276;28;20025;-70
2022/06/13 00:15:26;;;;;;;4.23;3.00;;;19.70;99.90;;;;;;1043593;28;20029;-69
2022/06/13 00:15:57;;;;;;;6.60;3.27;;;19.70;99.90;;;;;;1043215;28;20087;-69
2022/06/13 00:16:28;;;;;;;5.50;2.87;;;19.70;99.90;;;;;;1043355;28;20021;-70
2022/06/13 00:16:58;;;;;;;6.00;2.87;;;19.70;99.90;;;;;;1043294;28;20097;-69
2022/06/13 00:17:29;;;;;;;7.60;2.97;;;19.70;99.90;;;;;;1043512;28;20113;-70
2022/06/13 00:17:59;;;;;;;5.17;2.97;;;19.70;99.90;;;;;;1043664;28;20009;-69
2022/06/13 00:18:30;;;;;;;5.57;2.67;;;19.70;99.90;;;;;;1043517;28;20009;-69
2022/06/13 00:19:01;;;;;;;5.63;3.07;;;19.70;99.90;;;;;;1043168;28;20020;-69
2022/06/13 00:19:31;;;;;;;5.73;3.53;;;19.70;99.90;;;;;;1043464;28;20029;-70
2022/06/13 00:20:04;;;;;;;5.17;3.10;;;19.70;99.90;;;;;;1042878;28;20112;-69
2022/06/13 00:20:34;;;;;;;5.55;2.75;;;19.70;99.90;;;;;;1043210;28;20567;-69
2022/06/13 00:21:05;;;;;;;8.17;3.43;;;19.70;99.90;;;;;;1043033;28;20519;-69
2022/06/13 00:21:36;;;;;;;5.07;3.10;;;19.70;99.90;;;;;;1043013;28;20408;-70
2022/06/13 00:22:07;;;;;;;4.35;2.78;;;19.70;99.90;;;;;;1043365;28;20013;-70
2022/06/13 00:22:38;;;;;;;5.67;3.73;;;19.70;99.90;;;;;;1043430;28;20095;-70
2022/06/13 00:23:08;;;;;;;6.37;3.67;;;19.70;99.90;;;;;;1043061;28;20120;-70
2022/06/13 00:23:39;;;;;;;7.27;3.60;;;19.70;99.90;;;;;;1042928;28;20792;-70
2022/06/13 00:24:10;;;;;;;6.60;3.90;;;19.70;99.90;;;;;;1043112;28;20015;-70
2022/06/13 00:24:40;;;;;;;6.77;3.60;;;19.70;99.90;;;;;;1042973;28;20013;-70
2022/06/13 00:25:11;;;;;;;8.20;3.27;;;19.70;99.90;;;;;;1043505;28;20091;-70
2022/06/13 00:25:42;;;;;;;5.28;3.47;;;19.70;99.90;;;;;;1043666;28;20009;-69
2022/06/13 00:26:13;;;;;;;5.47;3.20;;;19.70;99.90;;;;;;1043452;28;20461;-70
2022/06/13 00:26:43;;;;;;;5.57;3.42;;;19.70;99.90;;;;;;1043370;28;20021;-69
2022/06/13 00:27:15;;;;;;;6.70;3.40;;;19.70;99.90;;;;;;1043269;28;20013;-69
2022/06/13 00:27:45;;;;;;;6.13;3.67;;;19.70;99.90;;;;;;1043250;28;20017;-69
2022/06/13 00:28:16;;;;;;;6.40;3.27;;;19.70;99.90;;;;;;1043809;28;20114;-70
2022/06/13 00:28:47;;;;;;;7.83;4.03;;;19.70;99.90;;;;;;1043339;28;20479;-68
2022/06/13 00:29:18;;;;;;;5.63;3.60;;;19.60;99.90;;;;;;1043308;28;20013;-70
2022/06/13 00:29:49;;;;;;;6.80;3.70;;;19.60;99.90;;;;;;1043270;28;20027;-68
2022/06/13 00:30:20;;;;;;;7.22;3.30;;;19.60;99.90;;;;;;1043100;28;20120;-70
2022/06/13 00:30:50;;;;;;;7.97;3.67;;;19.60;99.90;;;;;;1043617;28;20021;-70
2022/06/13 00:31:21;;;;;;;7.83;3.50;;;19.60;99.90;;;;;;1043233;28;20045;-70
2022/06/13 00:31:52;;;;;;;6.80;3.37;;;19.60;99.90;;;;;;1043282;28;20143;-71
2022/06/13 00:32:22;;;;;;;7.87;3.83;;;19.60;99.90;;;;;;1043158;28;20013;-69
2022/06/13 00:32:53;;;;;;;4.30;2.80;;;19.70;99.90;;;;;;1043178;28;20661;-68
2022/06/13 00:33:23;;;;;;;6.47;4.07;;;19.60;99.90;;;;;;1043826;28;20066;-68
2022/06/13 00:33:54;;;;;;;6.27;3.30;;;19.60;99.90;;;;;;1043221;28;20104;-68
2022/06/13 00:34:25;;;;;;;5.60;3.70;;;19.60;99.90;;;;;;1043414;28;20622;-68
2022/06/13 00:34:55;;;;;;;7.90;3.83;;;19.60;99.90;;;;;;1043287;28;20028;-69
2022/06/13 00:35:26;;;;;;;12.73;4.37;;;19.70;99.90;;;;;;1043496;28;20504;-69
2022/06/13 00:35:56;;;;;;;5.77;4.10;;;19.60;99.90;;;;;;1043291;28;20071;-68
2022/06/13 00:36:27;;;;;;;4.93;3.10;;;19.60;99.90;;;;;;1043485;28;20016;-71
2022/06/13 00:36:58;;;;;;;6.70;4.10;;;19.60;99.90;;;;;;1043216;28;20028;-71
2022/06/13 00:37:29;;;;;;;4.78;2.97;;;19.70;99.90;;;;;;1043057;28;20495;-70
2022/06/13 00:38:00;;;;;;;5.80;3.25;;;19.70;99.90;;;;;;1042882;28;20104;-70
2022/06/13 00:38:30;;;;;;;7.27;3.30;;;19.70;99.90;;;;;;1043321;28;20016;-70
2022/06/13 00:39:02;;;;;;;5.63;3.37;;;19.70;99.90;;;;;;1042833;28;20021;-69
2022/06/13 00:39:33;;;;;;;6.15;3.55;;;19.60;99.90;;;;;;1043306;28;20028;-69
2022/06/13 00:40:05;;;;;;;6.07;3.33;;;19.70;99.90;;;;;;1043234;28;20335;-69
2022/06/13 00:40:36;;;;;;;7.00;3.33;;;19.60;99.90;;;;;;1042867;28;20567;-69
2022/06/13 00:41:08;;;;;;;8.03;3.53;;;19.60;99.90;;;;;;1043113;28;20558;-69
2022/06/13 00:41:41;;;;;;;6.70;3.80;;;19.60;99.90;;;;;;1042931;28;20029;-69
2022/06/13 00:42:17;;;;;;;7.65;3.70;;;19.60;99.90;;;;;;1042867;28;20052;-68
2022/06/13 00:42:48;;;;;;;9.43;3.65;;;19.60;99.90;;;;;;1042424;28;20047;-69
2022/06/13 00:43:19;;;;;;;5.90;3.10;;;19.70;99.90;;;;;;1039122;28;20033;-69
2022/06/13 00:43:50;;;;;;;5.43;2.93;;;19.70;99.90;;;;;;1039019;28;20021;-69
2022/06/13 00:44:28;;;;;;;5.60;3.22;;;19.70;99.90;;;;;;1038770;28;20029;-68
2022/06/13 00:45:09;;;;;;;6.07;3.50;;;19.70;99.90;;;;;;1038845;28;20099;-68
2022/06/13 00:45:40;;;;;;;5.32;3.20;;;19.60;99.90;;;;;;1038911;28;20039;-68
2022/06/13 00:46:21;;;;;;;4.87;2.70;;;19.70;99.90;;;;;;1039746;28;20385;-68
2022/06/13 00:46:52;;;;;;;5.35;3.22;;;19.60;99.90;;;;;;1039253;28;20053;-68
2022/06/13 00:47:23;;;;;;;5.82;3.58;;;19.60;99.90;;;;;;1039198;28;20095;-68
2022/06/13 00:47:55;;;;;;;5.23;3.10;;;19.60;99.90;;;;;;1039145;28;20385;-67
2022/06/13 00:48:29;;;;;;;6.53;3.50;;;19.60;99.90;;;;;;1039291;28;20021;-68
2022/06/13 00:49:13;;;;;;;6.40;3.60;;;19.60;99.90;;;;;;1039299;28;20075;-69
2022/06/13 00:49:44;;;;;;;6.28;3.15;;;19.60;99.90;;;;;;1039231;28;20109;-68
2022/06/13 00:50:22;;;;;;;7.20;3.13;;;19.60;99.90;;;;;;1038962;28;20014;-67
2022/06/13 00:50:58;;;;;;;6.65;3.33;;;19.60;99.90;;;;;;1039217;28;20057;-68
2022/06/13 00:51:31;;;;;;;6.22;3.15;;;19.60;99.90;;;;;;1039666;28;20021;-68
2022/06/13 00:52:32;;;;;;;6.70;3.40;;;19.60;99.90;;;;;;1039094;28;20536;-69
2022/06/13 00:53:26;;;;;;;5.60;2.83;;;19.60;99.90;;;;;;1039133;28;20022;-68
2022/06/13 00:53:57;;;;;;;5.43;3.20;;;19.60;99.90;;;;;;1039453;28;20481;-68
2022/06/13 00:54:28;;;;;;;5.47;2.92;;;19.60;99.90;;;;;;1041787;28;20472;-70
2022/06/13 00:54:58;;;;;;;4.90;3.45;;;19.60;99.90;;;;;;1043181;28;20155;-69
2022/06/13 00:55:47;;;;;;;7.27;3.83;;;19.60;99.90;;;;;;1043322;28;20025;-70
2022/06/13 00:56:24;;;;;;;8.20;3.85;;;19.60;99.90;;;;;;1043192;28;20039;-74
2022/06/13 00:56:54;;;;;;;6.93;3.60;;;19.60;99.90;;;;;;1043179;28;20638;-68
2022/06/13 00:57:28;;;;;;;8.07;3.37;;;19.60;99.90;;;;;;1043275;28;20575;-68
2022/06/13 00:58:00;;;;;;;5.57;3.22;;;19.60;99.90;;;;;;1043167;28;20044;-68
2022/06/13 00:58:36;;;;;;;5.97;3.10;;;19.60;99.90;;;;;;1043536;28;20103;-68
2022/06/13 00:59:14;;;;;;;8.48;3.75;;;19.60;99.90;;;;;;1043335;28;20017;-68
2022/06/13 00:59:47;;;;;;;6.45;2.88;;;19.50;99.90;;;;;;1043321;28;20032;-68
2022/06/13 01:00:19;;;;;;;7.20;3.15;;;19.50;99.90;;;;;;1043265;28;20043;-68
2022/06/13 01:00:54;;;;;;;6.68;3.30;;;19.50;99.90;;;;;;1043244;28;20031;-67
2022/06/13 01:01:27;;;;;;;6.10;3.15;;;19.50;99.90;;;;;;1043172;28;20668;-68
2022/06/13 01:01:58;;;;;;;9.85;3.50;;;19.50;99.90;;;;;;1042977;28;20172;-67
2022/06/13 01:02:29;;;;;;;8.32;3.83;;;19.50;99.90;;;;;;1042737;28;20048;-68
2022/06/13 01:03:02;;;;;;;6.27;3.10;;;19.50;99.90;;;;;;1042955;28;20024;-68
2022/06/13 01:03:34;;;;;;;7.00;3.30;;;19.50;99.90;;;;;;1042928;28;20523;-69
2022/06/13 01:04:06;;;;;;;7.80;3.38;;;19.50;99.90;;;;;;1043127;28;20078;-70
2022/06/13 01:04:39;;;;;;;6.63;3.28;;;19.50;99.90;;;;;;1042651;28;20373;-67
2022/06/13 01:05:12;;;;;;;4.55;3.38;;;19.50;99.90;;;;;;1043042;28;20021;-67
2022/06/13 01:05:47;;;;;;;6.25;3.17;;;19.50;99.90;;;;;;1042954;28;20498;-70
2022/06/13 01:06:18;;;;;;;6.75;3.95;;;19.50;99.90;;;;;;1043161;28;20025;-70
2022/06/13 01:06:50;;;;;;;5.43;3.05;;;19.50;99.90;;;;;;1043522;28;20400;-70
2022/06/13 01:07:21;;;;;;;5.55;3.10;;;19.50;99.90;;;;;;1043207;28;20447;-68
2022/06/13 01:07:53;;;;;;;5.43;3.20;;;19.50;99.90;;;;;;1039031;28;20025;-69
2022/06/13 01:08:26;;;;;;;6.18;3.10;;;19.50;99.90;;;;;;1039151;28;20029;-68
2022/06/13 01:08:56;;;;;;;4.82;2.83;;;19.50;99.90;;;;;;1038965;28;20017;-69
2022/06/13 01:11:26;;;;;;;6.25;3.00;;;19.50;99.90;;;;;;1043180;28;20102;-68
2022/06/13 01:11:57;;;;;;;7.45;3.67;;;19.50;99.90;;;;;;1042588;28;20037;-69
2022/06/13 01:12:29;;;;;;;7.27;3.43;;;19.50;99.90;;;;;;1042882;28;20021;-68
2022/06/13 01:13:04;;;;;;;4.68;2.97;;;19.50;99.90;;;;;;1043046;28;20028;-68
2022/06/13 01:14:17;;;;;;;4.82;2.80;;;19.50;99.90;;;;;;1043286;28;20820;-69
2022/06/13 01:15:16;;;;;;;4.72;2.95;;;19.50;99.90;;;;;;1043514;28;20087;-68
2022/06/13 01:16:10;;;;;;;7.97;3.63;;;19.50;99.90;;;;;;1042690;28;20488;-70
2022/06/13 01:16:50;;;;;;;6.10;3.35;;;19.50;99.90;;;;;;1042779;28;20024;-69
2022/06/13 01:17:47;;;;;;;5.82;3.30;;;19.50;99.90;;;;;;1043199;28;20504;-69
2022/06/13 01:18:55;;;;;;;5.78;3.15;;;19.50;99.90;;;;;;1043185;28;20396;-69
2022/06/13 01:19:47;;;;;;;5.35;3.38;;;19.50;99.90;;;;;;1043285;28;20028;-69
2022/06/13 01:20:44;;;;;;;5.47;3.67;;;19.50;99.90;;;;;;1043105;28;20467;-69
2022/06/13 01:21:57;;;;;;;5.78;3.17;;;19.50;99.90;;;;;;1043166;28;20013;-70
2022/06/13 01:23:05;;;;;;;6.72;2.97;;;19.50;99.90;;;;;;1038584;28;20048;-69
2022/06/13 01:23:51;;;;;;;4.63;2.85;;;19.50;99.90;;;;;;1041166;28;20509;-68
2022/06/13 01:24:37;;;;;;;4.10;2.53;;;19.50;99.90;;;;;;1043034;28;20078;-70
2022/06/13 01:25:32;;;;;;;4.53;2.67;;;19.50;99.90;;;;;;1043456;28;20060;-67
2022/06/13 01:26:44;;;;;;;8.57;3.25;;;19.50;99.90;;;;;;1043117;28;20147;-70
2022/06/13 01:27:49;;;;;;;6.78;3.20;;;19.50;99.90;;;;;;1042292;28;20461;-68
2022/06/13 01:28:44;;;;;;;5.22;3.05;;;19.50;99.90;;;;;;1038461;28;20782;-69
2022/06/13 01:29:41;;;;;;;4.65;2.67;;;19.50;99.90;;;;;;1042156;28;20028;-69
2022/06/13 01:30:32;;;;;;;;;;;19.50;99.90;;;;;;1043641;28;20093;-68
2022/06/13 01:31:29;;;;;;;5.55;3.38;;;19.50;99.90;;;;;;1034160;28;19905;-69
2022/06/13 01:32:18;;;;;;;;;;;19.50;99.90;;;;;;1038637;28;20031;-69
2022/06/13 01:32:57;;;;;;;5.47;2.83;;;19.50;99.90;;;;;;1043417;28;19905;-69
2022/06/13 01:33:55;;;;;;;5.70;3.13;;;19.50;99.90;;;;;;1043293;28;20012;-69
2022/06/13 01:34:37;;;;;;;5.07;3.05;;;19.50;99.90;;;;;;1042743;28;20071;-70
2022/06/13 01:35:31;;;;;;;5.97;3.03;;;19.40;99.90;;;;;;1042793;28;20577;-70
2022/06/13 01:36:02;;;;;;;6.70;3.22;;;19.40;99.90;;;;;;1038067;28;20536;-70
2022/06/13 01:36:51;;;;;;;6.70;3.03;;;19.40;99.90;;;;;;1038982;28;20436;-70
2022/06/13 01:37:34;;;;;;;5.03;2.95;;;19.40;99.90;;;;;;1039150;28;20040;-70
2022/06/13 01:38:26;;;;;;;5.22;3.03;;;19.40;99.90;;;;;;1039320;28;20010;-69
2022/06/13 01:39:14;;;;;;;5.35;3.00;;;19.40;99.90;;;;;;1038925;28;20729;-70
2022/06/13 01:40:00;;;;;;;5.22;3.38;;;19.40;99.90;;;;;;1039190;28;20022;-70
2022/06/13 01:40:49;;;;;;;5.43;3.08;;;19.40;99.90;;;;;;1039434;28;20105;-70
2022/06/13 01:41:31;;;;;;;7.32;3.17;;;19.40;99.90;;;;;;1038864;28;20020;-70
2022/06/13 01:42:24;;;;;;;4.47;2.95;;;19.40;99.90;;;;;;1039055;28;20009;-70
2022/06/13 01:43:19;;;;;;;6.78;3.80;;;19.40;99.90;;;;;;1040043;28;20518;-70
2022/06/13 01:44:12;;;;;;;5.40;2.78;;;19.40;99.90;;;;;;1042642;28;20151;-69
2022/06/13 01:44:52;;;;;;;5.55;2.47;;;19.40;99.90;;;;;;1040453;28;20028;-70
2022/06/13 01:45:31;;;;;;;4.82;2.85;;;19.40;99.90;;;;;;1039187;28;20028;-70
2022/06/13 01:46:12;;;;;;;6.68;3.58;;;19.40;99.90;;;;;;1038949;28;20018;-70
2022/06/13 01:46:54;;;;;;;5.32;2.70;;;19.40;99.90;;;;;;1039036;28;20135;-70
2022/06/13 01:48:01;;;;;;;6.07;3.28;;;19.40;99.90;;;;;;1039095;28;20060;-70
2022/06/13 01:48:42;;;;;;;5.43;2.92;;;19.40;99.90;;;;;;1039176;28;20013;-70
2022/06/13 01:49:46;;;;;;;4.28;3.10;;;19.40;99.90;;;;;;1038955;28;20064;-70
2022/06/13 01:50:27;;;;;;;5.15;3.22;;;19.40;99.90;;;;;;1038909;28;20094;-70
2022/06/13 01:51:41;;;;;;;5.45;3.40;;;19.40;99.90;;;;;;1039365;28;20067;-70
2022/06/13 01:52:11;;;;;;;6.50;2.80;;;19.40;99.90;;;;;;1038775;28;20369;-70
2022/06/13 01:53:01;;;;;;;8.13;3.03;;;19.40;99.90;;;;;;1038939;28;20341;-70
2022/06/13 01:53:44;;;;;;;5.22;2.70;;;19.40;99.90;;;;;;1039368;28;20002;-70
2022/06/13 01:54:20;;;;;;;7.75;4.05;;;19.40;99.90;;;;;;1038894;28;20013;-71
2022/06/13 01:55:03;;;;;;;6.65;3.08;;;19.40;99.90;;;;;;1038775;28;20020;-70
2022/06/13 01:55:52;;;;;;;5.68;2.90;;;19.40;99.90;;;;;;1039173;28;20006;-70
2022/06/13 01:57:02;;;;;;;6.93;3.30;;;19.40;99.90;;;;;;1039087;28;20014;-71
2022/06/13 01:57:46;;;;;;;5.45;3.53;;;19.40;99.90;;;;;;1038944;28;20037;-70
2022/06/13 01:58:56;;;;;;;5.93;3.53;;;19.40;99.90;;;;;;1038875;28;20032;-70
2022/06/13 01:59:40;;;;;;;4.30;2.90;;;19.40;99.90;;;;;;1042657;28;20013;-69
2022/06/13 02:00:15;;;;;;;6.15;3.03;;;19.40;99.90;;;;;;1043052;28;20060;-70
2022/06/13 02:00:57;;;;;;;6.15;3.05;;;19.40;99.90;;;;;;1043223;28;20760;-69
2022/06/13 02:01:34;;;;;;;6.22;2.95;;;19.40;99.90;;;;;;1042747;28;20152;-70
2022/06/13 02:02:33;;;;;;;4.90;2.80;;;19.40;99.90;;;;;;1042788;28;20074;-69
2022/06/13 02:03:13;;;;;;;3.97;2.60;;;19.40;99.90;;;;;;1038787;28;20788;-69
2022/06/13 02:03:47;;;;;;;6.82;3.40;;;19.40;99.90;;;;;;1043033;28;20569;-69
2022/06/13 02:04:35;;;;;;;5.78;3.38;;;19.40;99.90;;;;;;1042720;28;20076;-70
2022/06/13 02:05:16;;;;;;;5.32;2.55;;;19.40;99.90;;;;;;1043081;28;20039;-70
2022/06/13 02:06:01;;;;;;;7.55;3.22;;;19.40;99.90;;;;;;1042713;28;20821;-70
2022/06/13 02:06:35;;;;;;;6.63;3.20;;;19.40;99.90;;;;;;1043094;28;20118;-69
2022/06/13 02:07:18;;;;;;;6.78;3.15;;;19.40;99.90;;;;;;1042688;28;20021;-69
2022/06/13 02:08:17;;;;;;;5.35;3.25;;;19.40;99.90;;;;;;1043122;28;20032;-70
2022/06/13 02:09:01;;;;;;;7.53;3.22;;;19.40;99.90;;;;;;1043384;28;20159;-69
2022/06/13 02:09:39;;;;;;;5.70;3.25;;;19.40;99.90;;;;;;1043069;28;20033;-69
2022/06/13 02:10:23;;;;;;;6.07;3.38;;;19.40;99.90;;;;;;1043251;28;20027;-70
2022/06/13 02:11:01;;;;;;;3.92;2.95;;;19.40;99.90;;;;;;1042934;28;20387;-69
2022/06/13 02:11:44;;;;;;;8.75;3.30;;;19.40;99.90;;;;;;1043362;28;20473;-70
2022/06/13 02:12:17;;;;;;;7.35;3.42;;;19.40;99.90;;;;;;1042827;28;20056;-69
2022/06/13 02:12:52;;;;;;;6.13;2.88;;;19.40;99.90;;;;;;1042997;28;20047;-69
2022/06/13 02:13:47;;;;;;;6.72;3.17;;;19.40;99.90;;;;;;1043218;28;20052;-68
2022/06/13 02:14:29;;;;;;;6.88;3.47;;;19.40;99.90;;;;;;1042793;28;20029;-70
2022/06/13 02:15:04;;;;;;;6.10;3.53;;;19.40;99.90;;;;;;1042519;28;20492;-71
2022/06/13 02:15:45;;;;;;;6.78;3.25;;;19.40;99.90;;;;;;1042790;28;20017;-70
2022/06/13 02:16:22;;;;;;;4.50;3.30;;;19.40;99.90;;;;;;1042650;28;20033;-69
2022/06/13 02:17:12;;;;;;;7.03;3.33;;;19.40;99.90;;;;;;1041491;28;20286;-68
2022/06/13 02:18:05;;;;;;;6.90;3.50;;;19.40;99.90;;;;;;1042903;28;20052;-70
2022/06/13 02:18:48;;;;;;;6.00;3.33;;;19.40;99.90;;;;;;1042961;28;20084;-70
2022/06/13 02:19:31;;;;;;;6.68;3.58;;;19.30;99.90;;;;;;1043419;28;20025;-71
2022/06/13 02:20:13;;;;;;;6.15;3.17;;;19.30;99.90;;;;;;1042963;28;20021;-68
2022/06/13 02:20:48;;;;;;;6.95;3.88;;;19.30;99.90;;;;;;1043181;28;20085;-69
2022/06/13 02:21:23;;;;;;;6.53;3.63;;;19.30;99.90;;;;;;1042495;28;20115;-70
2022/06/13 02:22:06;;;;;;;8.55;4.03;;;19.30;99.90;;;;;;1043244;28;20498;-70
2022/06/13 02:22:51;;;;;;;6.80;3.58;;;19.30;99.90;;;;;;1042717;28;20108;-68
2022/06/13 02:23:25;;;;;;;9.10;4.43;;;19.30;99.90;;;;;;1042637;28;20108;-71
2022/06/13 02:23:59;;;;;;;7.75;4.30;;;19.30;99.90;;;;;;1043608;28;20502;-69
2022/06/13 02:24:41;;;;;;;8.73;4.47;;;19.30;99.90;;;;;;1044068;28;20013;-70
2022/06/13 02:25:17;;;;;;;8.65;4.57;;;19.30;99.90;;;;;;1043758;28;20025;-69
2022/06/13 02:25:57;;;;;;;10.50;4.65;;;19.30;99.90;;;;;;1043921;28;20021;-70
2022/06/13 02:26:34;;;;;;;7.85;4.13;;;19.30;99.90;;;;;;1043881;28;20372;-70
2022/06/13 02:27:07;;;;;;;10.15;4.47;;;19.30;99.90;;;;;;1044171;28;20092;-71
2022/06/13 02:27:39;;;;;;;6.50;3.95;;;19.40;99.90;;;;;;1043829;28;20024;-69
2022/06/13 02:28:25;;;;;;;8.23;4.35;;;19.40;99.90;;;;;;1043936;28;20036;-70
2022/06/13 02:29:02;;;;;;;7.35;4.25;;;19.40;99.90;;;;;;1043890;28;20124;-69
2022/06/13 02:29:41;;;;;;;6.88;4.00;;;19.40;99.90;;;;;;1044330;28;20017;-68
2022/06/13 02:30:16;;;;;;;5.72;3.80;;;19.40;99.90;;;;;;1043633;28;20021;-70
2022/06/13 02:30:52;;;;;;;6.30;3.60;;;19.40;99.90;;;;;;1043398;28;20028;-70
2022/06/13 02:31:33;;;;;;;6.10;3.67;;;19.40;99.90;;;;;;1043681;28;20021;-69
2022/06/13 02:32:29;;;;;;;9.65;4.20;;;19.40;99.90;;;;;;1040439;28;20362;-68
2022/06/13 02:33:05;;;;;;;7.40;4.00;;;19.40;99.90;;;;;;1039652;28;20026;-71
2022/06/13 02:34:00;;;;;;;5.93;3.50;;;19.40;99.90;;;;;;1039831;28;20025;-71
2022/06/13 02:34:33;;;;;;;8.98;3.67;;;19.40;99.90;;;;;;1040088;28;20019;-73
2022/06/13 02:35:10;;;;;;;10.23;5.00;;;19.40;99.90;;;;;;1039701;28;20025;-69
2022/06/13 02:36:10;;;;;;;6.55;4.53;;;19.40;99.90;;;;;;1039797;28;20022;-68
2022/06/13 02:37:13;;;;;;;7.65;4.80;;;19.30;99.90;;;;;;1039646;28;20041;-68
2022/06/13 02:37:53;;;;;;;8.23;4.05;;;19.30;99.90;;;;;;1030847;28;20178;-69
2022/06/13 02:38:53;;;;;;;9.52;4.35;;;19.30;99.90;;;;;;1039650;28;20067;-71
2022/06/13 02:39:50;;;;;;;7.75;3.88;;;19.30;99.90;;;;;;1039738;28;20013;-70
2022/06/13 02:40:33;;;;;;;7.85;4.45;;;19.30;99.90;;;;;;1039751;28;20027;-69
2022/06/13 02:41:08;;;;;;;8.77;4.60;;;19.30;99.90;;;;;;1039701;28;20089;-69
2022/06/13 02:41:44;;;;;;;9.43;4.82;;;19.30;99.90;;;;;;1039825;28;20017;-69
2022/06/13 02:42:27;;;;;;;6.85;3.75;;;19.30;99.90;;;;;;1039360;28;20436;-70
2022/06/13 02:43:07;;;;;;;6.75;4.07;;;19.30;99.90;;;;;;1041034;28;20009;-69
2022/06/13 02:43:42;;;;;;;6.25;3.88;;;19.30;99.90;;;;;;1043658;28;20100;-69
2022/06/13 02:44:22;;;;;;;7.70;4.32;;;19.30;99.90;;;;;;1039949;28;20384;-69
2022/06/13 02:44:58;;;;;;;7.60;5.03;;;19.30;99.90;;;;;;1039897;28;20016;-70
2022/06/13 02:45:36;;;;;;;6.20;4.53;;;19.20;99.90;;;;;;1039289;28;20009;-69
2022/06/13 02:46:43;;;;;;;7.75;4.13;;;19.30;99.90;;;;;;1035286;28;20112;-69
2022/06/13 02:47:24;;;;;;;5.82;4.20;;;19.20;99.90;;;;;;1032726;28;20510;-69
2022/06/13 02:47:54;;;;;;;6.78;4.15;;;19.20;99.90;;;;;;1035261;28;20079;-70
2022/06/13 02:48:34;;;;;;;8.00;4.30;;;19.20;99.90;;;;;;1038877;28;20091;-71
2022/06/13 02:49:08;;;;;;;8.70;4.38;;;19.20;99.90;;;;;;1039728;28;20018;-70
2022/06/13 02:49:50;;;;;;;7.32;4.07;;;19.20;99.90;;;;;;1039728;28;20026;-68
2022/06/13 02:50:24;;;;;;;8.10;4.00;;;19.20;99.90;;;;;;1040055;28;20009;-70
2022/06/13 02:51:04;;;;;;;8.38;4.30;;;19.20;99.90;;;;;;1039638;28;20396;-70
2022/06/13 02:52:00;;;;;;;7.53;4.07;;;19.20;99.90;;;;;;1039579;28;20532;-70
2022/06/13 02:52:40;;;;;;;6.57;4.45;;;19.20;99.90;;;;;;1039893;28;20017;-70
2022/06/13 02:53:32;;;;;;;5.10;3.50;;;19.20;99.90;;;;;;1039640;28;20132;-71
2022/06/13 02:54:10;;;;;;;6.70;4.30;;;19.20;99.90;;;;;;1039724;28;20041;-70
2022/06/13 02:54:51;;;;;;;8.10;4.13;;;19.20;99.90;;;;;;1039633;28;20044;-70
2022/06/13 02:55:23;;;;;;;9.95;4.53;;;19.20;99.90;;;;;;1039979;28;20009;-70
2022/06/13 02:56:08;;;;;;;9.07;3.90;;;19.20;99.90;;;;;;1039270;28;20536;-70
2022/06/13 02:58:17;;;;;;;7.88;3.72;;;19.20;99.90;;;;;;1039646;28;20165;-70
2022/06/13 02:59:19;;;;;;;10.00;4.47;;;19.20;99.90;;;;;;1039724;28;20579;-70
2022/06/13 03:00:30;;;;;;;8.68;4.15;;;19.20;99.90;;;;;;1039820;28;20052;-69
2022/06/13 03:01:09;;;;;;;6.97;3.70;;;19.20;99.90;;;;;;1039483;28;20032;-70
2022/06/13 03:01:43;;;;;;;9.45;3.92;;;19.20;99.90;;;;;;1039664;28;20048;-70
2022/06/13 03:02:20;;;;;;;7.72;3.80;;;19.20;99.90;;;;;;1043309;28;20239;-70
2022/06/13 03:03:14;;;;;;;7.82;4.65;;;19.20;99.90;;;;;;1044008;28;20024;-70
2022/06/13 03:04:00;;;;;;;8.85;3.67;;;19.20;99.90;;;;;;1043771;28;20104;-70
2022/06/13 03:04:41;;;;;;;7.53;3.45;;;19.20;99.90;;;;;;1043236;28;20424;-71
2022/06/13 03:05:24;;;;;;;8.45;3.83;;;19.20;99.90;;;;;;1043240;28;20013;-70
2022/06/13 03:06:07;;;;;;;5.80;3.67;;;19.20;99.90;;;;;;1043846;28;20024;-70
2022/06/13 03:06:54;;;;;;;6.75;3.90;;;19.20;99.90;;;;;;1043493;28;20328;-70
2022/06/13 03:07:38;;;;;;;8.05;4.32;;;19.20;99.90;;;;;;1043786;28;20017;-69
2022/06/13 03:08:32;;;;;;;7.30;4.22;;;19.20;99.90;;;;;;1043997;28;20434;-69
2022/06/13 03:09:36;;;;;;;6.90;3.90;;;19.20;99.90;;;;;;1043712;28;20095;-68
2022/06/13 03:10:14;;;;;;;5.38;3.60;;;19.30;99.90;;;;;;1043386;28;20009;-69
2022/06/13 03:10:59;;;;;;;6.63;4.10;;;19.30;99.90;;;;;;1043674;28;20032;-69
2022/06/13 03:12:07;;;;;;;6.80;3.95;;;19.20;99.90;;;;;;1043364;28;20530;-70
2022/06/13 03:12:47;;;;;;;5.85;3.05;;;19.30;99.90;;;;;;1043655;28;20067;-69
2022/06/13 03:13:35;;;;;;;5.57;3.22;;;19.20;99.90;;;;;;1043559;28;20045;-69
2022/06/13 03:14:25;;;;;;;10.15;3.88;;;19.30;99.90;;;;;;1043479;28;20013;-69
2022/06/13 03:15:24;;;;;;;6.28;3.80;;;19.30;99.90;;;;;;1043158;28;20009;-71
2022/06/13 03:16:02;;;;;;;8.30;3.42;;;19.30;99.90;;;;;;1043653;28;20020;-71
2022/06/13 03:16:44;;;;;;;5.85;3.22;;;19.30;99.90;;;;;;1043468;28;20535;-69
2022/06/13 03:17:48;;;;;;;8.00;4.20;;;19.30;99.90;;;;;;1043566;28;20009;-69
2022/06/13 03:18:28;;;;;;;7.00;3.72;;;19.30;99.90;;;;;;1043648;28;20062;-69
2022/06/13 03:19:22;;;;;;;6.20;3.88;;;19.30;99.90;;;;;;1043550;28;20036;-69
2022/06/13 03:20:14;;;;;;;5.75;3.03;;;19.30;99.90;;;;;;1043805;28;20104;-69
2022/06/13 03:20:54;;;;;;;4.53;3.50;;;19.30;99.90;;;;;;1043832;28;20017;-69
2022/06/13 03:21:33;;;;;;;5.82;3.25;;;19.20;99.90;;;;;;1044066;28;20017;-70
2022/06/13 03:22:35;;;;;;;6.00;3.50;;;19.20;99.90;;;;;;1043677;28;20741;-70
2022/06/13 03:23:14;;;;;;;6.72;3.20;;;19.30;99.90;;;;;;1043607;28;20013;-70
2022/06/13 03:23:46;;;;;;;;;;;19.30;99.90;;;;;;1044569;28;20048;-69
2022/06/13 03:24:34;;;;;;;8.70;3.25;;;19.20;99.90;;;;;;1043556;28;19954;-70
2022/06/13 03:25:10;;;;;;;5.63;3.70;;;19.20;99.90;;;;;;1043792;28;20062;-70
2022/06/13 03:25:50;;;;;;;6.82;3.60;;;19.20;99.90;;;;;;1043777;28;20013;-69
2022/06/13 03:26:25;;;;;;;6.93;3.35;;;19.30;99.90;;;;;;1043814;28;20010;-69
2022/06/13 03:27:01;;;;;;;6.53;3.72;;;19.30;99.90;;;;;;1043648;28;20015;-70
2022/06/13 03:27:33;;;;;;;7.18;3.55;;;19.30;99.90;;;;;;1043667;28;20021;-69
2022/06/13 03:28:19;;;;;;;8.02;3.50;;;19.30;99.90;;;;;;1041991;28;20017;-70
2022/06/13 03:28:56;;;;;;;6.28;3.63;;;19.30;99.90;;;;;;1039909;28;20021;-71
2022/06/13 03:29:40;;;;;;;6.75;3.53;;;19.30;99.90;;;;;;1039552;28;20373;-70
2022/06/13 03:30:18;;;;;;;5.97;3.47;;;19.30;99.90;;;;;;1039621;28;20121;-70
2022/06/13 03:31:04;;;;;;;7.63;3.60;;;19.20;99.90;;;;;;1039420;28;20451;-70
2022/06/13 03:31:44;;;;;;;7.95;3.60;;;19.30;99.90;;;;;;1039854;28;20056;-70
2022/06/13 03:32:24;;;;;;;6.13;3.17;;;19.30;99.90;;;;;;1039532;28;20029;-69